createdAt,value
2018-09-21T00:02:13.310Z,20.83
2018-09-21T00:04:46.909Z,20.83
2018-09-21T00:07:21.457Z,20.77
2018-09-21T00:09:54.164Z,20.78
2018-09-21T00:12:26.712Z,20.74
2018-09-21T00:15:04.910Z,20.69
2018-09-21T00:17:37.628Z,20.69
2018-09-21T00:20:11.028Z,20.68
2018-09-21T00:22:43.979Z,20.66
2018-09-21T00:25:16.570Z,20.65
2018-09-21T00:27:49.116Z,20.65
2018-09-21T00:30:22.116Z,20.65
2018-09-21T00:32:54.710Z,20.67
2018-09-21T00:35:27.357Z,20.69
2018-09-21T00:38:00.507Z,20.68
2018-09-21T00:40:33.430Z,20.66
2018-09-21T00:43:06.269Z,20.64
2018-09-21T00:45:39.311Z,20.66
2018-09-21T00:48:11.832Z,20.65
2018-09-21T00:50:44.412Z,20.64
2018-09-21T00:53:17.202Z,20.70
2018-09-21T00:55:49.760Z,20.65
2018-09-21T00:58:22.768Z,20.66
2018-09-21T01:00:56.788Z,20.67
2018-09-21T01:03:29.557Z,20.65
2018-09-21T01:06:02.888Z,20.67
2018-09-21T01:08:35.716Z,20.68
2018-09-21T01:11:08.379Z,20.66
2018-09-21T01:13:40.915Z,20.66
2018-09-21T01:16:21.596Z,20.68
2018-09-21T01:18:55.856Z,20.71
2018-09-21T01:21:28.453Z,20.71
2018-09-21T01:24:02.427Z,20.65
2018-09-21T01:26:35.269Z,20.65
2018-09-21T01:29:08.408Z,20.64
2018-09-21T01:31:41.900Z,20.63
2018-09-21T01:34:14.649Z,20.57
2018-09-21T01:36:47.294Z,20.51
2018-09-21T01:39:20.160Z,20.48
2018-09-21T01:41:52.733Z,20.44
2018-09-21T01:44:26.459Z,20.43
2018-09-21T01:46:59.224Z,20.46
2018-09-21T01:49:32.348Z,20.44
2018-09-21T01:52:04.956Z,20.49
2018-09-21T01:54:37.488Z,20.49
2018-09-21T01:57:11.050Z,20.45
2018-09-21T01:59:43.445Z,20.40
2018-09-21T02:02:16.012Z,20.37
2018-09-21T02:04:48.827Z,20.36
2018-09-21T02:07:21.447Z,20.37
2018-09-21T02:09:53.994Z,20.40
2018-09-21T02:12:26.933Z,20.40
2018-09-21T02:14:59.727Z,20.41
2018-09-21T02:17:34.065Z,20.46
2018-09-21T02:20:07.401Z,20.52
2018-09-21T02:22:39.964Z,20.58
2018-09-21T02:25:12.575Z,20.61
2018-09-21T02:27:45.491Z,20.62
2018-09-21T02:30:18.101Z,20.63
2018-09-21T02:32:50.891Z,20.69
2018-09-21T02:35:24.024Z,20.76
2018-09-21T02:37:56.416Z,20.82
2018-09-21T02:40:29.304Z,20.91
2018-09-21T02:43:02.212Z,21.02
2018-09-21T02:45:35.562Z,21.14
2018-09-21T02:48:09.289Z,21.23
2018-09-21T02:50:42.413Z,21.28
2018-09-21T02:53:16.552Z,21.35
2018-09-21T02:55:49.208Z,21.41
2018-09-21T02:58:23.189Z,21.47
2018-09-21T03:00:55.977Z,21.52
2018-09-21T03:03:28.388Z,21.62
2018-09-21T03:06:01.327Z,21.69
2018-09-21T03:08:34.152Z,21.73
2018-09-21T03:11:07.032Z,21.77
2018-09-21T03:13:40.237Z,21.80
2018-09-21T03:16:12.652Z,21.80
2018-09-21T03:18:47.993Z,21.88
2018-09-21T03:21:22.917Z,21.94
2018-09-21T03:23:56.848Z,21.96
2018-09-21T03:26:29.364Z,22.00
2018-09-21T03:29:02.309Z,21.89
2018-09-21T03:31:34.943Z,21.79
2018-09-21T03:34:07.491Z,21.74
2018-09-21T03:36:40.302Z,21.72
2018-09-21T03:39:12.836Z,21.71
2018-09-21T03:41:45.451Z,21.72
2018-09-21T03:44:18.757Z,21.71
2018-09-21T03:46:51.241Z,21.69
2018-09-21T03:49:25.164Z,21.68
2018-09-21T03:51:57.957Z,21.72
2018-09-21T03:54:31.843Z,21.72
2018-09-21T03:57:04.422Z,21.74
2018-09-21T03:59:37.308Z,21.76
2018-09-21T04:02:10.176Z,21.82
2018-09-21T04:04:43.820Z,21.81
2018-09-21T04:07:16.766Z,21.80
2018-09-21T04:09:50.177Z,21.82
2018-09-21T04:12:22.939Z,21.85
2018-09-21T04:14:57.119Z,21.85
2018-09-21T04:17:29.760Z,21.84
2018-09-21T04:20:02.277Z,21.86
2018-09-21T04:22:35.076Z,21.92
2018-09-21T04:25:09.646Z,21.94
2018-09-21T04:27:42.343Z,21.93
2018-09-21T04:30:20.017Z,21.92
2018-09-21T04:32:54.566Z,21.88
2018-09-21T04:35:28.073Z,21.87
2018-09-21T04:38:02.509Z,21.85
2018-09-21T04:40:34.994Z,21.84
2018-09-21T04:43:07.560Z,21.83
2018-09-21T04:45:41.454Z,21.80
2018-09-21T04:48:14.869Z,21.75
2018-09-21T04:50:47.437Z,21.73
2018-09-21T04:53:20.359Z,21.71
2018-09-21T04:55:53.096Z,21.69
2018-09-21T04:58:25.706Z,21.65
2018-09-21T05:00:58.472Z,21.60
2018-09-21T05:03:31.874Z,21.53
2018-09-21T05:06:05.921Z,21.49
2018-09-21T05:08:39.450Z,21.46
2018-09-21T05:11:12.370Z,21.43
2018-09-21T05:13:45.117Z,21.40
2018-09-21T05:16:17.620Z,21.38
2018-09-21T05:18:52.413Z,21.38
2018-09-21T05:21:25.031Z,21.34
2018-09-21T05:23:59.088Z,21.32
2018-09-21T05:26:32.740Z,21.34
2018-09-21T05:29:07.468Z,21.32
2018-09-21T05:31:41.779Z,21.30
2018-09-21T05:34:14.556Z,21.30
2018-09-21T05:36:47.040Z,21.31
2018-09-21T05:39:20.709Z,21.32
2018-09-21T05:41:54.044Z,21.32
2018-09-21T05:44:26.716Z,21.38
2018-09-21T05:47:00.671Z,21.39
2018-09-21T05:49:34.075Z,21.35
2018-09-21T05:52:07.008Z,21.33
2018-09-21T05:54:40.104Z,21.30
2018-09-21T05:57:18.056Z,21.28
2018-09-21T05:59:51.560Z,21.28
2018-09-21T06:02:27.272Z,21.27
2018-09-21T06:05:06.984Z,21.29
2018-09-21T06:07:39.575Z,21.33
2018-09-21T06:10:12.082Z,21.36
2018-09-21T06:12:46.052Z,21.37
2018-09-21T06:15:19.490Z,21.40
2018-09-21T06:17:52.505Z,21.38
2018-09-21T06:20:25.635Z,21.41
2018-09-21T06:22:59.917Z,21.42
2018-09-21T06:25:33.772Z,21.43
2018-09-21T06:28:07.838Z,21.46
2018-09-21T06:30:43.126Z,21.49
2018-09-21T06:33:16.689Z,21.51
2018-09-21T06:35:49.822Z,21.51
2018-09-21T06:38:22.352Z,21.53
2018-09-21T06:40:54.963Z,21.52
2018-09-21T06:43:28.261Z,21.52
2018-09-21T06:46:00.933Z,21.54
2018-09-21T06:48:35.093Z,21.56
2018-09-21T06:51:08.742Z,21.55
2018-09-21T06:53:41.892Z,21.56
2018-09-21T06:56:15.294Z,21.57
2018-09-21T06:58:48.239Z,21.56
2018-09-21T07:01:21.549Z,21.57
2018-09-21T07:03:54.041Z,21.56
2018-09-21T07:06:26.949Z,21.61
2018-09-21T07:08:59.828Z,21.62
2018-09-21T07:11:34.293Z,21.67
2018-09-21T07:14:09.708Z,21.71
2018-09-21T07:16:42.635Z,21.71
2018-09-21T07:19:15.473Z,21.74
2018-09-21T07:21:50.825Z,21.75
2018-09-21T07:24:23.690Z,21.76
2018-09-21T07:26:56.232Z,21.75
2018-09-21T07:29:32.120Z,21.76
2018-09-21T07:32:05.561Z,21.75
2018-09-21T07:34:38.483Z,21.79
2018-09-21T07:37:11.124Z,21.86
2018-09-21T07:39:43.584Z,21.90
2018-09-21T07:42:16.565Z,21.91
2018-09-21T07:44:50.203Z,21.90
2018-09-21T07:47:23.981Z,21.86
2018-09-21T07:49:58.200Z,21.84
2018-09-21T07:52:33.457Z,21.82
2018-09-21T07:55:17.967Z,21.79
2018-09-21T07:57:51.632Z,21.65
2018-09-21T08:00:24.837Z,21.46
2018-09-21T08:03:05.240Z,21.34
2018-09-21T08:05:39.250Z,21.32
2018-09-21T08:08:12.866Z,21.36
2018-09-21T08:10:46.896Z,21.48
2018-09-21T08:13:20.765Z,21.53
2018-09-21T08:16:10.437Z,21.56
2018-09-21T08:18:43.163Z,21.62
2018-09-21T08:21:15.669Z,21.65
2018-09-21T08:23:48.476Z,21.65
2018-09-21T08:26:21.639Z,21.67
2018-09-21T08:28:54.296Z,21.72
2018-09-21T08:31:27.680Z,21.74
2018-09-21T08:34:02.952Z,21.76
2018-09-21T08:36:37.075Z,21.59
2018-09-21T08:39:11.956Z,21.10
2018-09-21T08:41:47.268Z,20.42
2018-09-21T08:44:22.691Z,19.41
2018-09-21T08:46:55.376Z,18.80
2018-09-21T08:49:29.138Z,18.33
2018-09-21T08:52:05.684Z,18.03
2018-09-21T08:54:40.433Z,17.75
2018-09-21T08:57:13.295Z,17.44
2018-09-21T08:59:46.936Z,16.21
2018-09-21T09:02:22.337Z,15.14
2018-09-21T09:04:55.913Z,14.54
2018-09-21T09:07:28.933Z,14.19
2018-09-21T09:10:02.268Z,13.96
2018-09-21T09:12:37.187Z,13.79
2018-09-21T09:15:13.934Z,13.67
2018-09-21T09:17:50.445Z,13.61
2018-09-21T09:20:24.789Z,13.52
2018-09-21T09:22:59.413Z,13.47
2018-09-21T09:25:33.696Z,13.41
2018-09-21T09:28:10.701Z,13.34
2018-09-21T09:30:46.021Z,13.25
2018-09-21T09:33:20.818Z,13.09
2018-09-21T09:35:54.360Z,12.95
2018-09-21T09:38:26.936Z,12.88
2018-09-21T09:41:03.337Z,12.83
2018-09-21T09:43:36.566Z,12.82
2018-09-21T09:46:12.953Z,12.83
2018-09-21T09:48:48.277Z,12.85
2018-09-21T09:51:25.181Z,12.88
2018-09-21T09:53:58.557Z,12.89
2018-09-21T09:56:32.568Z,12.95
2018-09-21T09:59:06.531Z,12.99
2018-09-21T10:01:44.476Z,13.02
2018-09-21T10:04:19.468Z,13.07
2018-09-21T10:06:54.967Z,13.12
2018-09-21T10:09:29.780Z,13.14
2018-09-21T10:12:02.384Z,13.18
2018-09-21T10:14:36.452Z,13.24
2018-09-21T10:17:09.785Z,13.30
2018-09-21T10:19:45.881Z,13.35
2018-09-21T10:22:21.041Z,13.38
2018-09-21T10:24:55.716Z,13.38
2018-09-21T10:27:29.345Z,13.43
2018-09-21T10:30:06.715Z,13.45
2018-09-21T10:32:40.209Z,13.50
2018-09-21T10:35:15.860Z,13.55
2018-09-21T10:37:51.593Z,13.64
2018-09-21T10:40:25.462Z,13.71
2018-09-21T10:42:59.583Z,13.83
2018-09-21T10:45:33.029Z,13.93
2018-09-21T10:48:06.488Z,14.05
2018-09-21T10:50:40.969Z,14.20
2018-09-21T10:53:15.629Z,14.32
2018-09-21T10:55:49.991Z,14.35
2018-09-21T10:58:24.280Z,14.31
2018-09-21T11:00:58.089Z,14.27
2018-09-21T11:03:32.222Z,14.26
2018-09-21T11:06:06.458Z,14.30
2018-09-21T11:08:41.624Z,14.37
2018-09-21T11:11:24.290Z,14.44
2018-09-21T11:13:57.472Z,14.54
2018-09-21T11:16:31.685Z,14.54
2018-09-21T11:19:09.811Z,14.61
2018-09-21T11:21:47.432Z,14.60
2018-09-21T11:24:21.144Z,14.59
2018-09-21T11:26:54.496Z,14.64
2018-09-21T11:29:27.545Z,14.71
2018-09-21T11:32:02.076Z,14.88
2018-09-21T11:34:35.367Z,14.99
2018-09-21T11:37:11.069Z,15.14
2018-09-21T11:39:44.760Z,15.48
2018-09-21T11:42:18.804Z,15.77
2018-09-21T11:44:51.539Z,16.04
2018-09-21T11:47:24.296Z,16.33
2018-09-21T11:49:59.412Z,16.36
2018-09-21T11:52:32.482Z,16.31
2018-09-21T11:55:07.679Z,16.24
2018-09-21T11:57:41.672Z,16.11
2018-09-21T12:00:16.821Z,16.01
2018-09-21T12:02:49.444Z,15.97
2018-09-21T12:05:25.055Z,16.07
2018-09-21T12:08:00.653Z,16.14
2018-09-21T12:10:34.662Z,16.21
2018-09-21T12:13:09.342Z,16.26
2018-09-21T12:15:45.644Z,16.17
2018-09-21T12:18:19.785Z,16.05
2018-09-21T12:20:56.301Z,15.93
2018-09-21T12:23:31.682Z,15.84
2018-09-21T12:26:06.169Z,15.72
2018-09-21T12:28:40.793Z,15.56
2018-09-21T12:31:18.794Z,15.48
2018-09-21T12:33:53.483Z,15.47
2018-09-21T12:36:28.645Z,15.46
2018-09-21T12:39:02.558Z,15.44
2018-09-21T12:41:38.457Z,15.41
2018-09-21T12:44:15.599Z,15.45
2018-09-21T12:46:48.176Z,15.45
2018-09-21T12:49:28.693Z,15.50
2018-09-21T12:52:03.426Z,15.58
2018-09-21T12:54:40.066Z,15.64
2018-09-21T12:57:14.320Z,15.71
2018-09-21T12:59:47.576Z,15.78
2018-09-21T13:02:21.737Z,15.76
2018-09-21T13:04:55.096Z,15.78
2018-09-21T13:07:28.637Z,15.79
2018-09-21T13:10:09.213Z,15.77
2018-09-21T13:12:46.363Z,15.74
2018-09-21T13:15:21.113Z,15.79
2018-09-21T13:17:55.394Z,15.80
2018-09-21T13:20:28.148Z,15.82
2018-09-21T13:23:05.360Z,15.80
2018-09-21T13:25:39.136Z,15.80
2018-09-21T13:28:12.272Z,15.92
2018-09-21T13:30:47.013Z,15.89
2018-09-21T13:33:23.024Z,15.95
2018-09-21T13:35:56.749Z,16.19
2018-09-21T13:38:31.302Z,16.29
2018-09-21T13:41:04.112Z,16.41
2018-09-21T13:43:37.004Z,16.56
2018-09-21T13:46:12.152Z,16.58
2018-09-21T13:48:48.457Z,16.60
2018-09-21T13:51:22.159Z,16.64
2018-09-21T13:53:54.809Z,16.76
2018-09-21T13:56:27.790Z,16.86
2018-09-21T13:59:02.704Z,16.86
2018-09-21T14:01:37.973Z,16.88
2018-09-21T14:04:12.054Z,16.91
2018-09-21T14:06:45.669Z,16.96
2018-09-21T14:09:20.597Z,16.93
2018-09-21T14:11:53.594Z,16.98
2018-09-21T14:14:28.213Z,17.15
2018-09-21T14:17:00.748Z,17.27
2018-09-21T14:19:33.698Z,17.48
2018-09-21T14:22:06.805Z,17.73
2018-09-21T14:24:44.644Z,18.02
2018-09-21T14:27:20.180Z,18.40
2018-09-21T14:29:54.308Z,18.57
2018-09-21T14:32:27.372Z,18.43
2018-09-21T14:35:01.181Z,18.46
2018-09-21T14:37:34.915Z,18.49
2018-09-21T14:40:09.255Z,18.43
2018-09-21T14:42:42.062Z,18.36
2018-09-21T14:45:17.915Z,18.39
2018-09-21T14:47:52.602Z,18.24
2018-09-21T14:50:25.699Z,18.30
2018-09-21T14:53:09.475Z,18.40
2018-09-21T14:55:42.921Z,18.61
2018-09-21T14:58:15.613Z,18.67
2018-09-21T15:00:49.597Z,18.19
2018-09-21T15:03:22.380Z,17.76
2018-09-21T15:05:57.064Z,17.41
2018-09-21T15:08:32.671Z,17.36
2018-09-21T15:11:06.113Z,17.31
2018-09-21T15:13:39.733Z,17.23
2018-09-21T15:16:13.453Z,17.13
2018-09-21T15:18:50.449Z,17.25
2018-09-21T15:21:25.299Z,17.26
2018-09-21T15:23:59.689Z,17.42
2018-09-21T15:26:36.384Z,17.40
2018-09-21T15:29:10.000Z,17.34
2018-09-21T15:31:42.585Z,17.28
2018-09-21T15:34:16.332Z,17.32
2018-09-21T15:36:50.837Z,17.50
2018-09-21T15:39:26.797Z,17.69
2018-09-21T15:42:01.561Z,18.02
2018-09-21T15:44:35.984Z,18.36
2018-09-21T15:47:08.834Z,18.30
2018-09-21T15:49:41.896Z,18.15
2018-09-21T15:52:14.455Z,17.94
2018-09-21T15:54:47.111Z,17.64
2018-09-21T15:57:21.302Z,17.37
2018-09-21T15:59:58.568Z,17.10
2018-09-21T16:02:31.372Z,16.87
2018-09-21T16:05:07.153Z,16.69
2018-09-21T16:07:41.597Z,16.54
2018-09-21T16:10:15.437Z,16.68
2018-09-21T16:12:49.424Z,16.99
2018-09-21T16:15:45.917Z,17.33
2018-09-21T16:18:22.093Z,17.64
2018-09-21T16:20:58.459Z,17.78
2018-09-21T16:23:32.646Z,17.97
2018-09-21T16:26:11.861Z,18.06
2018-09-21T16:28:48.252Z,17.87
2018-09-21T16:31:22.125Z,17.58
2018-09-21T16:33:55.188Z,17.44
2018-09-21T16:36:30.610Z,17.42
2018-09-21T16:39:08.185Z,17.45
2018-09-21T16:41:41.462Z,17.42
2018-09-21T16:44:17.895Z,17.41
2018-09-21T16:46:50.553Z,17.38
2018-09-21T16:49:23.484Z,17.37
2018-09-21T16:52:00.070Z,17.32
2018-09-21T16:54:34.165Z,17.23
2018-09-21T16:57:06.868Z,17.11
2018-09-21T16:59:40.573Z,17.01
2018-09-21T17:02:13.380Z,16.92
2018-09-21T17:04:49.773Z,16.82
2018-09-21T17:07:22.978Z,16.71
2018-09-21T17:09:57.563Z,16.61
2018-09-21T17:12:30.958Z,16.48
2018-09-21T17:15:07.278Z,16.33
2018-09-21T17:17:41.378Z,16.18
2018-09-21T17:20:19.053Z,15.98
2018-09-21T17:22:56.580Z,15.85
2018-09-21T17:25:32.236Z,15.70
2018-09-21T17:28:10.533Z,15.55
2018-09-21T17:30:46.292Z,15.44
2018-09-21T17:33:22.991Z,15.39
2018-09-21T17:35:58.108Z,15.39
2018-09-21T17:38:31.724Z,15.38
2018-09-21T17:41:08.405Z,15.32
2018-09-21T17:43:43.713Z,15.19
2018-09-21T17:46:20.312Z,15.12
2018-09-21T17:48:53.828Z,15.04
2018-09-21T17:51:26.623Z,14.98
2018-09-21T17:54:01.283Z,15.00
2018-09-21T17:56:35.041Z,14.94
2018-09-21T17:59:10.463Z,14.85
2018-09-21T18:01:52.823Z,14.81
2018-09-21T18:04:27.205Z,14.85
2018-09-21T18:07:03.637Z,14.81
2018-09-21T18:09:36.790Z,14.74
2018-09-21T18:12:10.517Z,14.69
2018-09-21T18:14:47.738Z,14.83
2018-09-21T18:17:21.346Z,14.89
2018-09-21T18:19:56.487Z,14.95
2018-09-21T18:22:33.409Z,15.00
2018-09-21T18:25:11.565Z,15.11
2018-09-21T18:27:46.321Z,15.16
2018-09-21T18:30:22.061Z,15.21
2018-09-21T18:32:57.850Z,15.27
2018-09-21T18:35:35.892Z,15.33
2018-09-21T18:38:13.555Z,15.30
2018-09-21T18:40:51.920Z,15.23
2018-09-21T18:43:29.257Z,15.15
2018-09-21T18:46:04.806Z,15.10
2018-09-21T18:48:39.665Z,15.03
2018-09-21T18:51:13.669Z,14.98
2018-09-21T18:53:50.005Z,14.94
2018-09-21T18:56:24.746Z,14.93
2018-09-21T18:58:57.844Z,14.84
2018-09-21T19:01:31.374Z,14.82
2018-09-21T19:04:07.600Z,14.84
2018-09-21T19:06:43.259Z,14.85
2018-09-21T19:09:23.072Z,14.91
2018-09-21T19:11:57.729Z,14.95
2018-09-21T19:14:31.391Z,14.99
2018-09-21T19:17:06.506Z,14.99
2018-09-21T19:20:00.392Z,14.96
2018-09-21T19:22:33.953Z,14.92
2018-09-21T19:25:10.244Z,14.92
2018-09-21T19:27:43.348Z,14.89
2018-09-21T19:30:34.811Z,14.87
2018-09-21T19:33:08.749Z,14.89
2018-09-21T19:35:44.449Z,14.88
2018-09-21T19:38:20.809Z,14.90
2018-09-21T19:40:58.884Z,14.90
2018-09-21T19:43:33.827Z,14.89
2018-09-21T19:46:11.528Z,14.89
2018-09-21T19:48:45.631Z,14.93
2018-09-21T19:51:19.629Z,14.96
2018-09-21T19:53:53.668Z,14.97
2018-09-21T19:56:26.463Z,14.98
2018-09-21T19:59:03.244Z,15.01
2018-09-21T20:01:41.161Z,15.00
2018-09-21T20:04:19.669Z,14.99
2018-09-21T20:06:57.041Z,14.96
2018-09-21T20:09:33.765Z,14.91
2018-09-21T20:12:09.404Z,14.89
2018-09-21T20:14:51.010Z,14.89
2018-09-21T20:17:30.645Z,15.13
2018-09-21T20:20:06.262Z,15.30
2018-09-21T20:22:43.913Z,15.20
2018-09-21T20:25:23.568Z,14.97
2018-09-21T20:28:02.540Z,14.86
2018-09-21T20:30:46.324Z,14.79
2018-09-21T20:33:24.264Z,14.73
2018-09-21T20:35:58.438Z,14.68
2018-09-21T20:38:33.257Z,14.68
2018-09-21T20:41:10.882Z,14.66
2018-09-21T20:43:44.758Z,14.62
2018-09-21T20:46:21.109Z,14.54
2018-09-21T20:48:59.003Z,14.47
2018-09-21T20:51:39.891Z,14.47
2018-09-21T20:54:15.780Z,14.48
2018-09-21T20:56:52.065Z,14.46
2018-09-21T20:59:31.028Z,14.50
2018-09-21T21:02:11.462Z,14.49
2018-09-21T21:04:47.359Z,14.46
2018-09-21T21:07:24.534Z,14.44
2018-09-21T21:09:59.636Z,14.44
2018-09-21T21:12:33.140Z,14.38
2018-09-21T21:15:15.505Z,14.33
2018-09-21T21:17:50.329Z,14.26
2018-09-21T21:20:24.258Z,14.17
2018-09-21T21:22:58.688Z,14.05
2018-09-21T21:25:36.195Z,13.94
2018-09-21T21:28:10.905Z,13.90
2018-09-21T21:30:45.349Z,13.87
2018-09-21T21:33:20.052Z,13.78
2018-09-21T21:35:54.574Z,13.71
2018-09-21T21:38:29.968Z,13.66
2018-09-21T21:41:07.640Z,13.64
2018-09-21T21:43:40.358Z,13.58
2018-09-21T21:46:24.670Z,13.61
2018-09-21T21:48:58.164Z,13.62
2018-09-21T21:51:30.940Z,13.59
2018-09-21T21:54:06.323Z,13.51
2018-09-21T21:56:40.181Z,13.46
2018-09-21T21:59:14.013Z,13.48
2018-09-21T22:01:48.677Z,13.55
2018-09-21T22:04:21.414Z,13.62
2018-09-21T22:06:54.097Z,13.70
2018-09-21T22:09:27.930Z,13.75
2018-09-21T22:12:06.644Z,13.76
2018-09-21T22:14:39.296Z,13.72
2018-09-21T22:17:14.403Z,13.69
2018-09-21T22:19:47.789Z,13.65
2018-09-21T22:22:24.885Z,13.59
2018-09-21T22:24:57.997Z,13.50
2018-09-21T22:27:32.102Z,13.47
2018-09-21T22:30:12.718Z,13.38
2018-09-21T22:32:46.244Z,13.33
2018-09-21T22:35:20.872Z,13.32
2018-09-21T22:37:54.725Z,13.34
2018-09-21T22:40:29.212Z,13.36
2018-09-21T22:43:01.799Z,13.33
2018-09-21T22:45:37.615Z,13.32
2018-09-21T22:48:10.223Z,13.30
2018-09-21T22:50:42.777Z,13.38
2018-09-21T22:53:16.740Z,13.44
2018-09-21T22:55:49.333Z,13.51
2018-09-21T22:58:23.017Z,13.52
2018-09-21T23:00:58.016Z,13.48
2018-09-21T23:03:31.273Z,13.50
2018-09-21T23:06:05.348Z,13.52
2018-09-21T23:08:40.461Z,13.54
2018-09-21T23:11:13.006Z,13.60
2018-09-21T23:13:46.043Z,13.62
2018-09-21T23:16:23.674Z,13.61
2018-09-21T23:18:57.852Z,13.64
2018-09-21T23:21:35.757Z,13.66
2018-09-21T23:24:12.426Z,13.71
2018-09-21T23:26:46.956Z,13.75
2018-09-21T23:29:19.932Z,13.76
2018-09-21T23:31:52.779Z,13.75
2018-09-21T23:34:26.495Z,13.74
2018-09-21T23:37:03.012Z,13.75
2018-09-21T23:39:37.174Z,13.76
2018-09-21T23:42:10.716Z,13.74
2018-09-21T23:44:44.776Z,13.75
2018-09-21T23:47:18.363Z,13.76
2018-09-21T23:49:50.928Z,13.77
2018-09-21T23:52:23.874Z,13.77
2018-09-21T23:54:56.557Z,13.67
2018-09-21T23:57:29.162Z,13.49
